Stolt Shearwater — ZCRD9 — position and weather

sailwx.info

Track history (hours):
 
Tides and Currents Weather Stations Pressure Air Temp Water Temp Dewpoint Dewpoint Depression Visibility Wind Speed Wind Dir Waves Ship Positions

Stolt Shearwater

Last reported at 2017-Apr-30 20:32 UTC. Time now 2017-May-01 04:11 UTC.
Position N 50°26' W 000°27'.

Length 96 m; draft 6.6 m.

Type: Ship (hazmat cat B). MMSI: 319402000.

Date/timePositionNaut miles runAvg speedWind from/ knotsBaromVisibWave heightAir tempDewpointWater temp
2017-Apr-30 20:32N 50°26' W 000°27'011.0
2017-Apr-30 20:30N 50°26' W 000°26'611.3
2017-Apr-30 20:00N 50°28' W 000°18'611.8
2017-Apr-30 19:30N 50°30' W 000°09'612.3
2017-Apr-30 19:00N 50°32' E 000°00'612.5
2017-Apr-30 18:30N 50°33' E 000°10'612.4
2017-Apr-30 18:01N 50°35' E 000°19'612.2
2017-Apr-30 17:31N 50°37' E 000°28'611.9
2017-Apr-30 17:01N 50°39' E 000°37'611.5
2017-Apr-30 16:31N 50°43' E 000°44'510.9
2017-Apr-30 16:01N 50°46' E 000°51'510.2
2017-Apr-30 15:31N 50°49' E 000°58'6 9.5
2017-Apr-30 14:52N 50°53' E 001°05'4 9.0
2017-Apr-30 14:29N 50°55' E 001°10'8 8.7
2017-Apr-30 13:31N 51°00' E 001°20'4 9.0
2017-Apr-30 13:01N 51°03' E 001°25'510.7
2017-Apr-30 12:30N 51°07' E 001°32'612.0
2017-Apr-30 12:00N 51°11' E 001°39'612.6
2017-Apr-30 11:30N 51°15' E 001°46'713.6
2017-Apr-30 11:00N 51°21' E 001°52'713.4
2017-Apr-30 10:31N 51°26' E 001°58'713.0
2017-Apr-30 10:00N 51°31' E 002°05'712.5
2017-Apr-30 09:29N 51°36' E 002°12'8610.1
2017-Apr-30 01:00N 52°43' E 003°38'612.2
2017-Apr-30 00:31N 52°48' E 003°44'712.3
2017-Apr-29 23:59N 52°53' E 003°51'16110.2
2017-Apr-29 08:14N 54°01' E 007°57'310.8
2017-Apr-29 07:55N 54°01' E 008°02'510.9
2017-Apr-29 07:28N 54°01' E 008°11'510.5
2017-Apr-29 07:00N 54°00' E 008°19'713.3
2017-Apr-29 06:30N 53°59' E 008°30'713.1
2017-Apr-29 06:01N 53°56' E 008°40'713.2
2017-Apr-29 05:30N 53°51' E 008°47'713.3
2017-Apr-29 05:00N 53°51' E 008°58'611.8
2017-Apr-29 04:30N 53°53' E 009°08'5 9.3
2017-Apr-29 04:00N 53°53' E 009°16'5 9.4
2017-Apr-29 03:30N 53°50' E 009°22'5 9.1
2017-Apr-29 03:00N 53°45' E 009°24'4 8.6
2017-Apr-29 02:30N 53°42' E 009°30'2 3.6
2017-Apr-29 01:57N 53°40' E 009°30'0 0.0
2017-Apr-29 01:27N 53°40' E 009°30'0 0.0
2017-Apr-29 00:57N 53°40' E 009°30'0 0.0
2017-Apr-29 00:27N 53°40' E 009°30'0 0.2
2017-Apr-28 23:57N 53°40' E 009°30'0 0.3
2017-Apr-28 23:27N 53°41' E 009°30'0 0.3
2017-Apr-28 23:01N 53°41' E 009°30'2 3.0
2017-Apr-28 22:29N 53°39' E 009°31'0 0.0
2017-Apr-28 21:59N 53°39' E 009°31'0 0.0
2017-Apr-28 21:23N 53°39' E 009°31'0 0.0
2017-Apr-28 20:53N 53°39' E 009°31'0 0.0
2017-Apr-28 20:29N 53°39' E 009°31'0 0.0
2017-Apr-28 19:59N 53°39' E 009°31'0 0.0
2017-Apr-28 19:29N 53°39' E 009°31'0 0.0
2017-Apr-28 18:59N 53°39' E 009°31'0 0.0
2017-Apr-28 18:29N 53°39' E 009°31'0 0.0
2017-Apr-28 17:59N 53°39' E 009°31'0 0.0
2017-Apr-28 17:29N 53°39' E 009°31'0 0.0
2017-Apr-28 16:59N 53°39' E 009°31'0 0.0
2017-Apr-28 16:29N 53°39' E 009°31'0 0.0
2017-Apr-28 15:59N 53°39' E 009°31'0 0.0
2017-Apr-28 15:11N 53°39' E 009°31'0 0.0
2017-Apr-28 14:59N 53°39' E 009°31'0 0.0
2017-Apr-28 13:59N 53°39' E 009°31'0 0.0
2017-Apr-28 13:29N 53°39' E 009°31'0 0.0
2017-Apr-28 12:59N 53°39' E 009°31'0 0.0
2017-Apr-28 12:29N 53°39' E 009°31'0 0.0
2017-Apr-28 11:59N 53°39' E 009°31'0 0.0
2017-Apr-28 11:23N 53°39' E 009°31'0 0.0
2017-Apr-28 10:53N 53°39' E 009°31'0 0.0
2017-Apr-28 10:29N 53°39' E 009°31'0 0.0
2017-Apr-28 09:59N 53°39' E 009°31'0 0.0
2017-Apr-28 09:29N 53°39' E 009°31'0 0.0
2017-Apr-28 08:59N 53°39' E 009°31'0 0.0
2017-Apr-28 08:29N 53°39' E 009°31'0 0.0
2017-Apr-28 07:59N 53°39' E 009°31'0 0.0
2017-Apr-28 07:29N 53°39' E 009°31'0 0.0
2017-Apr-28 06:59N 53°39' E 009°31'0 0.0
2017-Apr-28 06:30N 53°39' E 009°31'1 2.8
2017-Apr-28 05:59N 53°40' E 009°30'0 0.1
2017-Apr-28 05:29N 53°41' E 009°30'0 0.1
2017-Apr-28 04:56N 53°41' E 009°30'0 0.1
2017-Apr-28 04:29N 53°41' E 009°30'0 0.2
2017-Apr-28 03:59N 53°40' E 009°30'0 0.1
2017-Apr-28 03:26N 53°40' E 009°30'0 0.6
2017-Apr-28 03:00N 53°40' E 009°30'510.2
2017-Apr-28 02:30N 53°44' E 009°25'713.5
2017-Apr-28 02:01N 53°50' E 009°20'713.9
2017-Apr-28 01:30N 53°53' E 009°09'612.7
2017-Apr-28 01:00N 53°51' E 008°59'714.3
2017-Apr-28 00:30N 53°50' E 008°47'713.6
2017-Apr-28 00:00N 53°56' E 008°40'713.7
2017-Apr-27 23:30N 53°58' E 008°29'713.9
2017-Apr-27 23:00N 53°60' E 008°17'611.2
2017-Apr-27 22:30N 53°59' E 008°08'5 9.9
2017-Apr-27 21:59N 53°58' E 007°59'3 6.6
2017-Apr-27 21:30N 53°57' E 007°54'4 0.3
2017-Apr-27 07:28N 53°54' E 007°49'5 9.7
2017-Apr-27 06:57N 53°50' E 007°53'511.2
2017-Apr-27 06:30N 53°48' E 008°01'611.9
2017-Apr-27 06:00N 53°43' E 008°04'4 8.6
2017-Apr-27 05:29N 53°38' E 008°07'0 0.0
2017-Apr-27 04:58N 53°38' E 008°07'0 0.0
2017-Apr-26 12:58N 53°38' E 008°07'1 1.6
2017-Apr-26 12:30N 53°39' E 008°06'5 9.3
2017-Apr-26 11:57N 53°44' E 008°03'510.1
2017-Apr-26 11:28N 53°48' E 007°59'11010.2
2017-Apr-26 00:38N 53°27' E 004°57'26 8.9
2017-Apr-25 21:42N 53°08' E 004°28'3 9.0
2017-Apr-25 21:25N 53°05' E 004°26'4 9.2
2017-Apr-25 20:59N 53°02' E 004°23'4 8.9
2017-Apr-25 20:30N 52°58' E 004°20'5 9.1
2017-Apr-25 20:00N 52°54' E 004°18'5 9.1
2017-Apr-25 19:29N 52°49' E 004°14'5 9.4
2017-Apr-25 18:59N 52°46' E 004°09'5 9.6
2017-Apr-25 18:30N 52°42' E 004°04'5 9.8
2017-Apr-25 17:59N 52°39' E 003°58'510.1
2017-Apr-25 17:30N 52°35' E 003°53'510.3
2017-Apr-25 16:59N 52°32' E 003°46'510.7
2017-Apr-25 16:30N 52°28' E 003°40'510.9
2017-Apr-25 16:00N 52°24' E 003°34'610.9
2017-Apr-25 15:29N 52°20' E 003°28'511.0
2017-Apr-25 14:59N 52°16' E 003°22'5810.9
2017-Apr-25 09:38N 51°32' E 002°19'1 9.4
2017-Apr-25 09:30N 51°31' E 002°18'5 9.0
2017-Apr-25 09:00N 51°28' E 002°13'4 8.6
2017-Apr-25 08:30N 51°24' E 002°11'4 8.4
2017-Apr-25 08:00N 51°20' E 002°09'4 8.0
2017-Apr-25 07:30N 51°16' E 002°06'4 7.6
2017-Apr-25 07:00N 51°13' E 002°03'4 7.8
2017-Apr-25 06:30N 51°11' E 001°57'4 8.0
2017-Apr-25 06:00N 51°09' E 001°52'4 8.3
2017-Apr-25 05:30N 51°07' E 001°46'4 8.3
2017-Apr-25 05:00N 51°05' E 001°41'4 8.4
2017-Apr-25 04:30N 51°02' E 001°36'4 8.5
2017-Apr-25 04:00N 50°58' E 001°32'4 8.9
2017-Apr-25 03:30N 50°55' E 001°27'59 9.6
2017-Apr-24 21:20N 50°21' E 000°10'611.7
2017-Apr-24 20:51N 50°19' E 000°02'412.5
2017-Apr-24 20:30N 50°18' W 000°05'612.9
2017-Apr-24 20:00N 50°16' W 000°14'713.4
2017-Apr-24 19:30N 50°14' W 000°24'713.7
2017-Apr-24 19:00N 50°12' W 000°35'713.9
2017-Apr-24 18:31N 50°10' W 000°45'714.0
2017-Apr-24 18:00N 50°08' W 000°56'1013.9
2017-Apr-24 17:18N 50°06' W 001°10'413.4
2017-Apr-24 17:00N 50°05' W 001°17'613.1
2017-Apr-24 16:30N 50°03' W 001°26'3910.0
2017-Apr-24 12:33N 49°54' W 002°26'2 8.3
2017-Apr-24 12:22N 49°53' W 002°28'4 8.4
2017-Apr-24 11:50N 49°52' W 002°35'4 8.8
2017-Apr-24 11:24N 49°51' W 002°40'4 9.1
2017-Apr-24 11:00N 49°50' W 002°46'5 9.4
2017-Apr-24 10:30N 49°49' W 002°53'1110.1
2017-Apr-24 09:24N 49°46' W 003°10'410.0
2017-Apr-24 09:00N 49°45' W 003°15'510.0
2017-Apr-24 08:30N 49°43' W 003°23'1610.9
2017-Apr-24 07:01N 49°39' W 003°47'411.1
2017-Apr-24 06:38N 49°40' W 003°54'310.8
2017-Apr-24 06:21N 49°39' W 003°58'411.0
2017-Apr-24 06:00N 49°38' W 004°04'711.1
2017-Apr-24 05:23N 49°36' W 004°14'511.3
2017-Apr-24 04:56N 49°35' W 004°22'511.5
2017-Apr-24 04:30N 49°34' W 004°29'1311.6
2017-Apr-24 03:22N 49°31' W 004°49'54 9.4
2017-Apr-23 21:39N 49°59' W 006°00'311.1
2017-Apr-23 21:22N 50°02' W 006°00'1311.6
2017-Apr-23 20:17N 50°14' W 006°01'511.8
2017-Apr-23 19:50N 50°20' W 006°01'20810.2
2017-Apr-22 23:22N 53°33' W 003°55'412.0
2017-Apr-22 23:00N 53°33' W 003°48'611.8
2017-Apr-22 22:30N 53°33' W 003°38'611.7
2017-Apr-22 22:00N 53°33' W 003°28'611.5
2017-Apr-22 21:30N 53°33' W 003°18'4 7.5
2017-Apr-22 21:00N 53°31' W 003°12'4 8.5
2017-Apr-22 20:30N 53°30' W 003°06'4 8.8
2017-Apr-22 20:00N 53°27' W 003°01'3 6.3
2017-Apr-22 19:30N 53°23' W 002°60'4 7.9
2017-Apr-22 19:00N 53°20' W 002°57'0 0.9
2017-Apr-22 18:28N 53°19' W 002°57'0 0.0
2017-Apr-22 17:55N 53°19' W 002°57'0 0.2
2017-Apr-22 17:28N 53°19' W 002°57'0 0.0
2017-Apr-22 16:55N 53°19' W 002°57'0 0.0
2017-Apr-22 16:25N 53°19' W 002°57'0 0.0
2017-Apr-22 15:58N 53°19' W 002°57'0 0.0
2017-Apr-22 15:28N 53°19' W 002°57'0 0.0
2017-Apr-22 14:58N 53°19' W 002°57'0 0.0
2017-Apr-22 14:25N 53°19' W 002°57'0 0.0
2017-Apr-22 13:25N 53°19' W 002°57'0 0.0
2017-Apr-22 12:55N 53°19' W 002°57'0 0.0
2017-Apr-22 12:28N 53°19' W 002°57'0 0.0
2017-Apr-22 11:37N 53°19' W 002°57'0 0.0
2017-Apr-22 11:13N 53°19' W 002°57'0 0.0
2017-Apr-22 10:43N 53°19' W 002°57'0 0.0
2017-Apr-22 10:19N 53°19' W 002°57'0 0.0
2017-Apr-22 03:55N 53°19' W 002°57'0 0.0
2017-Apr-22 02:49N 53°19' W 002°57'0 0.0
2017-Apr-22 02:07N 53°19' W 002°57'0 0.0
2017-Apr-22 01:49N 53°19' W 002°57'0 0.0
2017-Apr-22 01:25N 53°19' W 002°57'0 0.0
2017-Apr-22 00:55N 53°19' W 002°57'0 0.0
2017-Apr-22 00:19N 53°19' W 002°57'0 0.0
2017-Apr-21 23:55N 53°19' W 002°57'0 0.0
2017-Apr-21 14:55N 53°19' W 002°57'0 0.0
2017-Apr-21 13:01N 53°19' W 002°57'0 0.0
2017-Apr-21 12:49N 53°19' W 002°57'0 0.0
2017-Apr-21 12:25N 53°19' W 002°57'0 0.0
2017-Apr-21 11:55N 53°19' W 002°57'0 0.0
2017-Apr-21 11:25N 53°19' W 002°57'0 0.0
2017-Apr-21 10:55N 53°19' W 002°57'0 0.0
2017-Apr-21 10:25N 53°19' W 002°57'0 0.0
2017-Apr-21 09:55N 53°19' W 002°57'0 0.0
2017-Apr-21 09:19N 53°19' W 002°57'0 0.0
2017-Apr-21 08:13N 53°19' W 002°57'0 0.0
2017-Apr-21 07:07N 53°19' W 002°57'0 0.0
2017-Apr-21 06:19N 53°19' W 002°57'0 0.0
2017-Apr-21 05:37N 53°19' W 002°57'0 0.0
2017-Apr-21 05:19N 53°19' W 002°57'0 0.0
2017-Apr-21 04:55N 53°19' W 002°57'0 0.0
2017-Apr-21 04:19N 53°19' W 002°57'0 0.0
2017-Apr-21 02:49N 53°19' W 002°57'0 0.0
2017-Apr-21 02:25N 53°19' W 002°57'0 0.0
2017-Apr-21 01:43N 53°19' W 002°57'0 0.0
2017-Apr-21 00:25N 53°19' W 002°57'0 0.0
2017-Apr-20 23:55N 53°19' W 002°57'0 0.0
2017-Apr-20 23:25N 53°19' W 002°57'0 0.0
2017-Apr-20 22:43N 53°19' W 002°57'0 0.0
2017-Apr-20 22:25N 53°19' W 002°57'0 0.0
2017-Apr-20 21:49N 53°19' W 002°57'0 0.0
2017-Apr-20 21:19N 53°19' W 002°57'0 0.0
2017-Apr-20 20:49N 53°19' W 002°57'  
Track history (hours):
 
Tides and Currents Weather Stations Pressure Air Temp Water Temp Dewpoint Dewpoint Depression Visibility Wind Speed Wind Dir Waves Ship Positions

Stolt Shearwater

Last reported at 2017-Apr-30 20:32 UTC. Time now 2017-May-01 04:11 UTC.
Position N 50°26' W 000°27'.

Length 96 m; draft 6.6 m.

Type: Ship (hazmat cat B). MMSI: 319402000.

Date/timePositionNaut miles runAvg speedWind from/ knotsBaromVisibWave heightAir tempDewpointWater temp
2017-Apr-30 20:32N 50°26' W 000°27'011.0
2017-Apr-30 20:30N 50°26' W 000°26'611.3
2017-Apr-30 20:00N 50°28' W 000°18'611.8
2017-Apr-30 19:30N 50°30' W 000°09'612.3
2017-Apr-30 19:00N 50°32' E 000°00'612.5
2017-Apr-30 18:30N 50°33' E 000°10'612.4
2017-Apr-30 18:01N 50°35' E 000°19'612.2
2017-Apr-30 17:31N 50°37' E 000°28'611.9
2017-Apr-30 17:01N 50°39' E 000°37'611.5
2017-Apr-30 16:31N 50°43' E 000°44'510.9
2017-Apr-30 16:01N 50°46' E 000°51'510.2
2017-Apr-30 15:31N 50°49' E 000°58'6 9.5
2017-Apr-30 14:52N 50°53' E 001°05'4 9.0
2017-Apr-30 14:29N 50°55' E 001°10'8 8.7
2017-Apr-30 13:31N 51°00' E 001°20'4 9.0
2017-Apr-30 13:01N 51°03' E 001°25'510.7
2017-Apr-30 12:30N 51°07' E 001°32'612.0
2017-Apr-30 12:00N 51°11' E 001°39'612.6
2017-Apr-30 11:30N 51°15' E 001°46'713.6
2017-Apr-30 11:00N 51°21' E 001°52'713.4
2017-Apr-30 10:31N 51°26' E 001°58'713.0
2017-Apr-30 10:00N 51°31' E 002°05'712.5
2017-Apr-30 09:29N 51°36' E 002°12'8610.1
2017-Apr-30 01:00N 52°43' E 003°38'612.2
2017-Apr-30 00:31N 52°48' E 003°44'712.3
2017-Apr-29 23:59N 52°53' E 003°51'16110.2
2017-Apr-29 08:14N 54°01' E 007°57'310.8
2017-Apr-29 07:55N 54°01' E 008°02'510.9
2017-Apr-29 07:28N 54°01' E 008°11'510.5
2017-Apr-29 07:00N 54°00' E 008°19'713.3
2017-Apr-29 06:30N 53°59' E 008°30'713.1
2017-Apr-29 06:01N 53°56' E 008°40'713.2
2017-Apr-29 05:30N 53°51' E 008°47'713.3
2017-Apr-29 05:00N 53°51' E 008°58'611.8
2017-Apr-29 04:30N 53°53' E 009°08'5 9.3
2017-Apr-29 04:00N 53°53' E 009°16'5 9.4
2017-Apr-29 03:30N 53°50' E 009°22'5 9.1
2017-Apr-29 03:00N 53°45' E 009°24'4 8.6
2017-Apr-29 02:30N 53°42' E 009°30'2 3.6
2017-Apr-29 01:57N 53°40' E 009°30'0 0.0
2017-Apr-29 01:27N 53°40' E 009°30'0 0.0
2017-Apr-29 00:57N 53°40' E 009°30'0 0.0
2017-Apr-29 00:27N 53°40' E 009°30'0 0.2
2017-Apr-28 23:57N 53°40' E 009°30'0 0.3
2017-Apr-28 23:27N 53°41' E 009°30'0 0.3
2017-Apr-28 23:01N 53°41' E 009°30'2 3.0
2017-Apr-28 22:29N 53°39' E 009°31'0 0.0
2017-Apr-28 21:59N 53°39' E 009°31'0 0.0
2017-Apr-28 21:23N 53°39' E 009°31'0 0.0
2017-Apr-28 20:53N 53°39' E 009°31'0 0.0
2017-Apr-28 20:29N 53°39' E 009°31'0 0.0
2017-Apr-28 19:59N 53°39' E 009°31'0 0.0
2017-Apr-28 19:29N 53°39' E 009°31'0 0.0
2017-Apr-28 18:59N 53°39' E 009°31'0 0.0
2017-Apr-28 18:29N 53°39' E 009°31'0 0.0
2017-Apr-28 17:59N 53°39' E 009°31'0 0.0
2017-Apr-28 17:29N 53°39' E 009°31'0 0.0
2017-Apr-28 16:59N 53°39' E 009°31'0 0.0
2017-Apr-28 16:29N 53°39' E 009°31'0 0.0
2017-Apr-28 15:59N 53°39' E 009°31'0 0.0
2017-Apr-28 15:11N 53°39' E 009°31'0 0.0
2017-Apr-28 14:59N 53°39' E 009°31'0 0.0
2017-Apr-28 13:59N 53°39' E 009°31'0 0.0
2017-Apr-28 13:29N 53°39' E 009°31'0 0.0
2017-Apr-28 12:59N 53°39' E 009°31'0 0.0
2017-Apr-28 12:29N 53°39' E 009°31'0 0.0
2017-Apr-28 11:59N 53°39' E 009°31'0 0.0
2017-Apr-28 11:23N 53°39' E 009°31'0 0.0
2017-Apr-28 10:53N 53°39' E 009°31'0 0.0
2017-Apr-28 10:29N 53°39' E 009°31'0 0.0
2017-Apr-28 09:59N 53°39' E 009°31'0 0.0
2017-Apr-28 09:29N 53°39' E 009°31'0 0.0
2017-Apr-28 08:59N 53°39' E 009°31'0 0.0
2017-Apr-28 08:29N 53°39' E 009°31'0 0.0
2017-Apr-28 07:59N 53°39' E 009°31'0 0.0
2017-Apr-28 07:29N 53°39' E 009°31'0 0.0
2017-Apr-28 06:59N 53°39' E 009°31'0 0.0
2017-Apr-28 06:30N 53°39' E 009°31'1 2.8
2017-Apr-28 05:59N 53°40' E 009°30'0 0.1
2017-Apr-28 05:29N 53°41' E 009°30'0 0.1
2017-Apr-28 04:56N 53°41' E 009°30'0 0.1
2017-Apr-28 04:29N 53°41' E 009°30'0 0.2
2017-Apr-28 03:59N 53°40' E 009°30'0 0.1
2017-Apr-28 03:26N 53°40' E 009°30'0 0.6
2017-Apr-28 03:00N 53°40' E 009°30'510.2
2017-Apr-28 02:30N 53°44' E 009°25'713.5
2017-Apr-28 02:01N 53°50' E 009°20'713.9
2017-Apr-28 01:30N 53°53' E 009°09'612.7
2017-Apr-28 01:00N 53°51' E 008°59'714.3
2017-Apr-28 00:30N 53°50' E 008°47'713.6
2017-Apr-28 00:00N 53°56' E 008°40'713.7
2017-Apr-27 23:30N 53°58' E 008°29'713.9
2017-Apr-27 23:00N 53°60' E 008°17'611.2
2017-Apr-27 22:30N 53°59' E 008°08'5 9.9
2017-Apr-27 21:59N 53°58' E 007°59'3 6.6
2017-Apr-27 21:30N 53°57' E 007°54'4 0.3
2017-Apr-27 07:28N 53°54' E 007°49'5 9.7
2017-Apr-27 06:57N 53°50' E 007°53'511.2
2017-Apr-27 06:30N 53°48' E 008°01'611.9
2017-Apr-27 06:00N 53°43' E 008°04'4 8.6
2017-Apr-27 05:29N 53°38' E 008°07'0 0.0
2017-Apr-27 04:58N 53°38' E 008°07'0 0.0
2017-Apr-26 12:58N 53°38' E 008°07'1 1.6
2017-Apr-26 12:30N 53°39' E 008°06'5 9.3
2017-Apr-26 11:57N 53°44' E 008°03'510.1
2017-Apr-26 11:28N 53°48' E 007°59'11010.2
2017-Apr-26 00:38N 53°27' E 004°57'26 8.9
2017-Apr-25 21:42N 53°08' E 004°28'3 9.0
2017-Apr-25 21:25N 53°05' E 004°26'4 9.2
2017-Apr-25 20:59N 53°02' E 004°23'4 8.9
2017-Apr-25 20:30N 52°58' E 004°20'5 9.1
2017-Apr-25 20:00N 52°54' E 004°18'5 9.1
2017-Apr-25 19:29N 52°49' E 004°14'5 9.4
2017-Apr-25 18:59N 52°46' E 004°09'5 9.6
2017-Apr-25 18:30N 52°42' E 004°04'5 9.8
2017-Apr-25 17:59N 52°39' E 003°58'510.1
2017-Apr-25 17:30N 52°35' E 003°53'510.3
2017-Apr-25 16:59N 52°32' E 003°46'510.7
2017-Apr-25 16:30N 52°28' E 003°40'510.9
2017-Apr-25 16:00N 52°24' E 003°34'610.9
2017-Apr-25 15:29N 52°20' E 003°28'511.0
2017-Apr-25 14:59N 52°16' E 003°22'5810.9
2017-Apr-25 09:38N 51°32' E 002°19'1 9.4
2017-Apr-25 09:30N 51°31' E 002°18'5 9.0
2017-Apr-25 09:00N 51°28' E 002°13'4 8.6
2017-Apr-25 08:30N 51°24' E 002°11'4 8.4
2017-Apr-25 08:00N 51°20' E 002°09'4 8.0
2017-Apr-25 07:30N 51°16' E 002°06'4 7.6
2017-Apr-25 07:00N 51°13' E 002°03'4 7.8
2017-Apr-25 06:30N 51°11' E 001°57'4 8.0
2017-Apr-25 06:00N 51°09' E 001°52'4 8.3
2017-Apr-25 05:30N 51°07' E 001°46'4 8.3
2017-Apr-25 05:00N 51°05' E 001°41'4 8.4
2017-Apr-25 04:30N 51°02' E 001°36'4 8.5
2017-Apr-25 04:00N 50°58' E 001°32'4 8.9
2017-Apr-25 03:30N 50°55' E 001°27'59 9.6
2017-Apr-24 21:20N 50°21' E 000°10'611.7
2017-Apr-24 20:51N 50°19' E 000°02'412.5
2017-Apr-24 20:30N 50°18' W 000°05'612.9
2017-Apr-24 20:00N 50°16' W 000°14'713.4
2017-Apr-24 19:30N 50°14' W 000°24'713.7
2017-Apr-24 19:00N 50°12' W 000°35'713.9
2017-Apr-24 18:31N 50°10' W 000°45'714.0
2017-Apr-24 18:00N 50°08' W 000°56'1013.9
2017-Apr-24 17:18N 50°06' W 001°10'413.4
2017-Apr-24 17:00N 50°05' W 001°17'613.1
2017-Apr-24 16:30N 50°03' W 001°26'3910.0
2017-Apr-24 12:33N 49°54' W 002°26'2 8.3
2017-Apr-24 12:22N 49°53' W 002°28'4 8.4
2017-Apr-24 11:50N 49°52' W 002°35'4 8.8
2017-Apr-24 11:24N 49°51' W 002°40'4 9.1
2017-Apr-24 11:00N 49°50' W 002°46'5 9.4
2017-Apr-24 10:30N 49°49' W 002°53'1110.1
2017-Apr-24 09:24N 49°46' W 003°10'410.0
2017-Apr-24 09:00N 49°45' W 003°15'510.0
2017-Apr-24 08:30N 49°43' W 003°23'1610.9
2017-Apr-24 07:01N 49°39' W 003°47'411.1
2017-Apr-24 06:38N 49°40' W 003°54'310.8
2017-Apr-24 06:21N 49°39' W 003°58'411.0
2017-Apr-24 06:00N 49°38' W 004°04'711.1
2017-Apr-24 05:23N 49°36' W 004°14'511.3
2017-Apr-24 04:56N 49°35' W 004°22'511.5
2017-Apr-24 04:30N 49°34' W 004°29'1311.6
2017-Apr-24 03:22N 49°31' W 004°49'54 9.4
2017-Apr-23 21:39N 49°59' W 006°00'311.1
2017-Apr-23 21:22N 50°02' W 006°00'1311.6
2017-Apr-23 20:17N 50°14' W 006°01'511.8
2017-Apr-23 19:50N 50°20' W 006°01'20810.2
2017-Apr-22 23:22N 53°33' W 003°55'412.0
2017-Apr-22 23:00N 53°33' W 003°48'611.8
2017-Apr-22 22:30N 53°33' W 003°38'611.7
2017-Apr-22 22:00N 53°33' W 003°28'611.5
2017-Apr-22 21:30N 53°33' W 003°18'4 7.5
2017-Apr-22 21:00N 53°31' W 003°12'4 8.5
2017-Apr-22 20:30N 53°30' W 003°06'4 8.8
2017-Apr-22 20:00N 53°27' W 003°01'3 6.3
2017-Apr-22 19:30N 53°23' W 002°60'4 7.9
2017-Apr-22 19:00N 53°20' W 002°57'0 0.9
2017-Apr-22 18:28N 53°19' W 002°57'0 0.0
2017-Apr-22 17:55N 53°19' W 002°57'0 0.2
2017-Apr-22 17:28N 53°19' W 002°57'0 0.0
2017-Apr-22 16:55N 53°19' W 002°57'0 0.0
2017-Apr-22 16:25N 53°19' W 002°57'0 0.0
2017-Apr-22 15:58N 53°19' W 002°57'0 0.0
2017-Apr-22 15:28N 53°19' W 002°57'0 0.0
2017-Apr-22 14:58N 53°19' W 002°57'0 0.0
2017-Apr-22 14:25N 53°19' W 002°57'0 0.0
2017-Apr-22 13:25N 53°19' W 002°57'0 0.0
2017-Apr-22 12:55N 53°19' W 002°57'0 0.0
2017-Apr-22 12:28N 53°19' W 002°57'0 0.0
2017-Apr-22 11:37N 53°19' W 002°57'0 0.0
2017-Apr-22 11:13N 53°19' W 002°57'0 0.0
2017-Apr-22 10:43N 53°19' W 002°57'0 0.0
2017-Apr-22 10:19N 53°19' W 002°57'0 0.0
2017-Apr-22 03:55N 53°19' W 002°57'0 0.0
2017-Apr-22 02:49N 53°19' W 002°57'0 0.0
2017-Apr-22 02:07N 53°19' W 002°57'0 0.0
2017-Apr-22 01:49N 53°19' W 002°57'0 0.0
2017-Apr-22 01:25N 53°19' W 002°57'0 0.0
2017-Apr-22 00:55N 53°19' W 002°57'0 0.0
2017-Apr-22 00:19N 53°19' W 002°57'0 0.0
2017-Apr-21 23:55N 53°19' W 002°57'0 0.0
2017-Apr-21 14:55N 53°19' W 002°57'0 0.0
2017-Apr-21 13:01N 53°19' W 002°57'0 0.0
2017-Apr-21 12:49N 53°19' W 002°57'0 0.0
2017-Apr-21 12:25N 53°19' W 002°57'0 0.0
2017-Apr-21 11:55N 53°19' W 002°57'0 0.0
2017-Apr-21 11:25N 53°19' W 002°57'0 0.0
2017-Apr-21 10:55N 53°19' W 002°57'0 0.0
2017-Apr-21 10:25N 53°19' W 002°57'0 0.0
2017-Apr-21 09:55N 53°19' W 002°57'0 0.0
2017-Apr-21 09:19N 53°19' W 002°57'0 0.0
2017-Apr-21 08:13N 53°19' W 002°57'0 0.0
2017-Apr-21 07:07N 53°19' W 002°57'0 0.0
2017-Apr-21 06:19N 53°19' W 002°57'0 0.0
2017-Apr-21 05:37N 53°19' W 002°57'0 0.0
2017-Apr-21 05:19N 53°19' W 002°57'0 0.0
2017-Apr-21 04:55N 53°19' W 002°57'0 0.0
2017-Apr-21 04:19N 53°19' W 002°57'0 0.0
2017-Apr-21 02:49N 53°19' W 002°57'0 0.0
2017-Apr-21 02:25N 53°19' W 002°57'0 0.0
2017-Apr-21 01:43N 53°19' W 002°57'0 0.0
2017-Apr-21 00:25N 53°19' W 002°57'0 0.0
2017-Apr-20 23:55N 53°19' W 002°57'0 0.0
2017-Apr-20 23:25N 53°19' W 002°57'0 0.0
2017-Apr-20 22:43N 53°19' W 002°57'0 0.0
2017-Apr-20 22:25N 53°19' W 002°57'0 0.0
2017-Apr-20 21:49N 53°19' W 002°57'0 0.0
2017-Apr-20 21:19N 53°19' W 002°57'0 0.0
2017-Apr-20 20:49N 53°19' W 002°57'  

Dump ship's entire track history